Fremont, MI

2:17 PM EDT on May 28, 2017 (GMT -0400)
Fremont

Weather History for KFFX - December, 2012

Change the Weather History Date:

Tuesday, December 4, 2012

  Actual Average (KMKG) Record (KMKG)
Temperature  
Mean Temperature 44 °F -  
Max Temperature 57 °F 36 °F 60 °F (1941)
Min Temperature 32 °F 25 °F 7 °F (1966)
Degree Days  
Heating Degree Days 20    
Moisture  
Dew Point 36 °F    
Average Humidity 73    
Maximum Humidity 97    
Minimum Humidity 50    
Precipitation  
Precipitation 0.00 in - - ()
Sea Level Pressure  
Sea Level Pressure 29.99 in    
Wind  
Wind Speed 11 mph (WSW)    
Max Wind Speed 23 mph    
Max Gust Speed 33 mph    
Visibility 10 miles    
Events Rain    
Averages and records for this station are not official NWS values.
T = Trace of Precipitation, MM = Missing Value Source: NWS Daily Summary

Daily Weather History Graph

Daily Weather History Graph

Search for Another Location

Airport or City:

Trip Planner

Search our weather history database for the weather conditions in past years. The results will help you decide how hot, cold, wet, or windy it might be!

Date:

Astronomy

Dec. 04, 2012 Rise Set
Actual Time 8:00 AM EST 5:08 PM EST
Civil Twilight 7:28 AM EST 5:40 PM EST
Nautical Twilight 6:52 AM EST 6:16 PM EST
Astronomical Twilight 6:17 AM EST 6:50 PM EST
Moon 11:01 PM EST (12/4) 11:48 AM EST (12/4)
Length of Visible Light 10h 12m
Length of Day
9h 07m
Waning Gibbous, 69% of the Moon is Illuminated
Dec 4
Waning Gibbous
Dec 6
Last Quarter
Dec 13
New
Dec 20
First Quarter
Dec 28
Full

Hourly Weather History & Observations

Time (EST) Temp. Windchill Dew Point Humidity Pressure Visibility Wind Dir Wind Speed Gust Speed Precip Events Conditions
12:14 AM 57.7 °F - 55.9 °F 94% 29.80 in 4.0 mi SW 13.8 mph 18.4 mph N/A Rain Heavy Rain
12:34 AM 56.8 °F - 55.4 °F 95% 29.80 in 4.0 mi SSW 23.0 mph 33.4 mph N/A Rain Heavy Rain
12:55 AM 55.4 °F - 54.5 °F 97% 29.80 in 5.0 mi SSW 17.3 mph 28.8 mph N/A Rain Rain
1:14 AM 54.5 °F - 53.8 °F 97% 29.83 in 5.0 mi SW 15.0 mph 24.2 mph N/A Rain Heavy Rain
1:35 AM 53.8 °F - 52.9 °F 97% 29.84 in 7.0 mi WSW 13.8 mph 18.4 mph N/A   Light Drizzle
1:54 AM 53.1 °F - 51.8 °F 95% 29.85 in 7.0 mi WSW 10.4 mph - N/A   Overcast
2:14 AM 52.0 °F - 50.4 °F 94% 29.86 in 7.0 mi WSW 9.2 mph - N/A   Mostly Cloudy
2:35 AM 50.5 °F - 48.7 °F 94% 29.87 in 7.0 mi West 10.4 mph - N/A   Clear
2:54 AM 49.5 °F - 46.9 °F 91% 29.88 in 10.0 mi West 9.2 mph - N/A   Clear
3:15 AM 48.4 °F - 45.5 °F 90% 29.89 in 10.0 mi West 10.4 mph - N/A   Scattered Clouds
3:54 AM 47.3 °F - 44.6 °F 90% 29.90 in 10.0 mi West 8.1 mph - N/A   Mostly Cloudy
4:14 AM 46.8 °F - 44.1 °F 90% 29.91 in 10.0 mi West 8.1 mph - N/A   Scattered Clouds
4:34 AM 46.4 °F 41.1 °F 42.8 °F 87% 29.91 in 10.0 mi West 11.5 mph - N/A   Clear
4:55 AM 45.7 °F 41.5 °F 41.9 °F 87% 29.91 in 10.0 mi West 8.1 mph - N/A   Clear
5:14 AM 44.6 °F 40.7 °F 41.2 °F 88% 29.92 in 10.0 mi West 6.9 mph - N/A   Clear
5:35 AM 43.3 °F 39.9 °F 40.1 °F 88% 29.93 in 10.0 mi West 5.8 mph - N/A   Clear
5:54 AM 43.9 °F 42.3 °F 39.7 °F 85% 29.94 in 10.0 mi SW 3.5 mph - N/A   Clear
6:14 AM 42.6 °F 40.9 °F 39.7 °F 90% 29.94 in 10.0 mi SSW 3.5 mph - N/A   Clear
6:34 AM 42.4 °F 40.7 °F 40.1 °F 91% 29.95 in 10.0 mi SW 3.5 mph - N/A   Clear
6:54 AM 43.7 °F 41.1 °F 40.6 °F 89% 29.96 in 10.0 mi SW 4.6 mph - N/A   Clear
7:15 AM 43.7 °F 40.3 °F 40.1 °F 87% 29.97 in 10.0 mi SW 5.8 mph - N/A   Clear
7:34 AM 43.2 °F 39.0 °F 39.7 °F 88% 29.98 in 10.0 mi SSW 6.9 mph - N/A   Clear
7:54 AM 42.8 °F 39.3 °F 39.4 °F 88% 29.98 in 10.0 mi SW 5.8 mph - N/A   Clear
8:15 AM 43.0 °F 39.5 °F 39.4 °F 87% 29.98 in 10.0 mi SW 5.8 mph - N/A   Clear
8:34 AM 42.6 °F 39.9 °F 39.2 °F 88% 29.98 in 10.0 mi SSW 4.6 mph - N/A   Clear
8:54 AM 42.4 °F 39.6 °F 39.4 °F 89% 29.98 in 10.0 mi SW 4.6 mph - N/A   Clear
9:14 AM 42.8 °F 40.1 °F 39.2 °F 87% 29.99 in 10.0 mi SW 4.6 mph - N/A   Clear
9:35 AM 43.3 °F 39.2 °F 39.2 °F 85% 29.99 in 10.0 mi SSW 6.9 mph - N/A   Clear
9:54 AM 43.7 °F 40.3 °F 39.6 °F 85% 30.00 in 10.0 mi SSW 5.8 mph - N/A   Clear
10:15 AM 44.6 °F 40.7 °F 39.0 °F 81% 30.01 in 10.0 mi SW 6.9 mph - N/A   Clear
10:34 AM 45.1 °F 41.4 °F 38.5 °F 77% 30.00 in 10.0 mi SW 6.9 mph - N/A   Clear
10:55 AM 45.7 °F 41.0 °F 37.9 °F 74% 30.00 in 10.0 mi WSW 9.2 mph - N/A   Clear
11:14 AM 46.4 °F 41.1 °F 37.4 °F 71% 30.01 in 10.0 mi WSW 11.5 mph 16.1 mph N/A   Clear
11:34 AM 46.4 °F 41.5 °F 35.1 °F 65% 30.00 in 10.0 mi West 10.4 mph - N/A   Clear
11:55 AM 46.4 °F 41.1 °F 35.1 °F 65% 30.00 in 10.0 mi West 11.5 mph 16.1 mph N/A   Clear
12:14 PM 46.4 °F 41.9 °F 34.9 °F 64% 29.99 in 10.0 mi WSW 9.2 mph - N/A   Clear
12:35 PM 46.9 °F - 34.7 °F 62% 29.99 in 10.0 mi WSW 10.4 mph - N/A   Clear
1:14 PM 48.0 °F - 32.9 °F 56% 29.99 in 10.0 mi West 12.7 mph 18.4 mph N/A   Clear
1:34 PM 48.4 °F - 32.5 °F 54% 29.98 in 10.0 mi WSW 11.5 mph 17.3 mph N/A   Clear
1:54 PM 48.7 °F - 32.4 °F 53% 29.98 in 10.0 mi SW 9.2 mph 16.1 mph N/A   Clear
2:15 PM 49.5 °F - 32.2 °F 51% 29.98 in 10.0 mi WSW 13.8 mph 17.3 mph N/A   Clear
2:34 PM 49.3 °F - 32.0 °F 51% 29.98 in 10.0 mi WSW 13.8 mph 18.4 mph N/A   Clear
2:55 PM 49.1 °F - 30.9 °F 50% 29.98 in 10.0 mi WSW 13.8 mph 21.9 mph N/A   Clear
3:14 PM 49.1 °F - 31.3 °F 50% 29.98 in 10.0 mi WSW 12.7 mph 19.6 mph N/A   Clear
3:34 PM 48.6 °F - 31.6 °F 52% 29.99 in 10.0 mi WSW 10.4 mph - N/A   Clear
3:55 PM 48.7 °F - 31.6 °F 52% 30.00 in 10.0 mi WSW 11.5 mph - N/A   Clear
4:14 PM 48.4 °F - 32.0 °F 53% 30.00 in 10.0 mi WSW 13.8 mph - N/A   Clear
4:35 PM 47.7 °F - 32.0 °F 55% 30.00 in 10.0 mi WSW 9.2 mph - N/A   Clear
4:54 PM 46.6 °F - 32.0 °F 57% 30.01 in 10.0 mi WSW 9.2 mph - N/A   Clear
5:14 PM 45.3 °F 41.1 °F 32.0 °F 60% 30.01 in 10.0 mi WSW 8.1 mph - N/A   Clear
5:34 PM 44.6 °F 40.7 °F 32.0 °F 61% 30.02 in 10.0 mi WSW 6.9 mph - N/A   Clear
5:54 PM 43.7 °F 39.7 °F 32.0 °F 63% 30.03 in 10.0 mi West 6.9 mph - N/A   Clear
6:14 PM 42.8 °F 38.6 °F 32.0 °F 66% 30.04 in 10.0 mi West 6.9 mph - N/A   Clear
6:35 PM 43.2 °F 37.0 °F 32.0 °F 65% 30.05 in 10.0 mi West 11.5 mph - N/A   Clear
6:55 PM 42.8 °F 37.0 °F 31.1 °F 63% 30.06 in 10.0 mi West 10.4 mph - N/A   Clear
7:14 PM 42.6 °F 35.9 °F 29.5 °F 60% 30.06 in 10.0 mi West 12.7 mph 21.9 mph N/A   Clear
7:35 PM 41.9 °F 35.0 °F 29.3 °F 61% 30.07 in 10.0 mi West 12.7 mph 16.1 mph N/A   Clear
7:54 PM 41.0 °F 33.5 °F 29.1 °F 63% 30.08 in 10.0 mi WNW 13.8 mph 18.4 mph N/A   Clear
8:14 PM 40.1 °F 31.6 °F 27.9 °F 62% 30.09 in 10.0 mi West 16.1 mph 20.7 mph N/A   Clear
8:34 PM 39.2 °F 30.2 °F 27.1 °F 62% 30.10 in 10.0 mi WNW 17.3 mph 21.9 mph N/A   Clear
8:54 PM 38.5 °F 30.7 °F 26.4 °F 62% 30.11 in 10.0 mi West 12.7 mph - N/A   Clear
9:14 PM 37.6 °F 28.8 °F 26.1 °F 63% 30.12 in 10.0 mi West 15.0 mph 19.6 mph N/A   Clear
9:34 PM 37.2 °F 29.1 °F 26.1 °F 64% 30.12 in 10.0 mi WNW 12.7 mph - N/A   Clear
9:55 PM 36.1 °F 28.2 °F 25.9 °F 66% 30.13 in 10.0 mi West 11.5 mph - N/A   Clear
10:14 PM 36.1 °F 26.5 °F 24.8 °F 63% 30.14 in 10.0 mi WNW 16.1 mph 20.7 mph N/A   Scattered Clouds
10:34 PM 35.4 °F 25.3 °F 23.2 °F 61% 30.16 in 10.0 mi WNW 17.3 mph - N/A   Scattered Clouds
10:54 PM 34.3 °F 24.6 °F 21.6 °F 60% 30.16 in 10.0 mi NW 15.0 mph 24.2 mph N/A   Clear
11:14 PM 33.1 °F 23.9 °F 20.7 °F 60% 30.18 in 10.0 mi NW 12.7 mph 21.9 mph N/A   Clear
11:34 PM 32.2 °F 21.8 °F 19.8 °F 60% 30.18 in 10.0 mi NW 15.0 mph 19.6 mph N/A   Clear
11:54 PM 32.0 °F 22.1 °F 18.7 °F 58% 30.19 in 10.0 mi WNW 13.8 mph 18.4 mph N/A   Clear